Observation Tools

Willow oak Photo courtesy of Steve Baskauf, Vanderbilt University, bioimages.vanderbilt.edu.

Willow oak (Quercus phellos)


Plant Family: Beech (Fagaceae)
Project BudBurst Plant Group: Deciduous Trees and Shrubs

Identification Hints: Willow oaks are found in much ofthe eastern United States and as far west as Texas and Oklahoma.They prefer stream sides and wet areas, but can also be found in upland areas. The shape of the leaves,which are long and skinny like willow-leaves, are what give this oak species its name. Willow oaksproduce acorns in abundance and are an important food source for wildlife.

Did you Know? Willow oaks have separate male and female catkins that consist of small, inconspicuous, yellowish-green flowers. The male and female flowers can often be found on the same tree. This tree is commonly planted for shade and is often found along the edges of ponds and reservoirs.


Live Map for Willow oak

Other years available for viewing:

Below you can view all observations that have been reported in for Willow oak (If the map below is empty then there have not been any observations reported.)

Use the navigation buttons on the left to zoom in/out and pan around. Click on each place marker to get detail information about that observation.

Leaf/Needles/Stalk = Leaf/Needles/Stalk Flower = Flower Pollen = Pollen Fruiting = Fruiting Color = Color

--Back to Top--

close help window button

The table below displays all the data that has been submitted to Project BudBurst. By default, the data is sorted by the date on which the phenophase occurred. Clicking the up and down arrows next to each column name allows you to sort on any value. If there have been more than 10 observations submitted, you can choose how many to display at a time using the "Show __ entries" control. You can also page through the data using the previous and next buttons at the bottom right of the table.

The Search box allows you to search all of the data. Searching by date, species, phenophase, etc. is easy—just start typing and the table will immediately change to contain only observations that contain your search phrase. Do you want to see only 2012 observations? Just type "2012" in the search box. Only want to see maples? Enter "Acer." You can combine searches, too! Searching for "acer 2012" will narrow your results to only the maples that were observed in 2012 (assuming that any observations exist, of course).

Once you have your results in the order desired, you can use any of the buttons above the search box to copy the results to the clipboard; save them as a text, or spreadsheet; or even print them from your browser!

Observational data for Willow oak:

help button
Date Contributor Common Name Species Phenophase Latitude Longitude Obs#
Tue Sep 04 00:00:00 GMT 2012 evieroen Willow oak Quercus phellos Leaves Dropping (Early) 42.360000000000000 -83.050000000000000 16501
Tue Sep 04 00:00:00 GMT 2012 evieroen Willow oak Quercus phellos Leaves Dropping (Early) 42.360000000000000 -83.050000000000000 16502
Tue Sep 04 00:00:00 GMT 2012 evieroen Willow oak Quercus phellos Leaves Dropping (Early) 42.360000000000000 -83.050000000000000 16503
Tue Sep 04 00:00:00 GMT 2012 evieroen Willow oak Quercus phellos Leaves Dropping (Early) 42.360000000000000 -83.050000000000000 16499
Tue Oct 16 00:00:00 GMT 2012 waryan Willow oak Quercus phellos Leaves Changing Color (Middle) 40.008100000000000 -105.280000000000000 17478
Fri Apr 05 00:00:00 GMT 2013 lsjones1_CCHS_reporter1 Willow oak Quercus phellos Leaves Unfolding (Early) 35.613300000000000 -79.390100000000000 18696
Wed Apr 03 00:00:00 GMT 2013 josefina2024 Willow oak Quercus phellos Bud Burst 33.845900000000000 -84.340100000000000 18709
Tue Apr 09 00:00:00 GMT 2013 Taproot123 Willow oak Quercus phellos Leaves Unfolding (Early) 33.997500000000000 -84.069700000000000 18713
Sat Jul 20 00:00:00 GMT 2013 jeanmp Willow oak Quercus phellos All Leaves Unfolded 35.010700000000000 -79.039300000000000 21721
Sun Oct 20 00:00:00 GMT 2013 katherine_kovach Willow oak Quercus phellos Leaves Dropping (Middle) 36.012700000000000 -78.904500000000000 22673
Sun Nov 03 00:00:00 GMT 2013 Courtney Willow oak Quercus phellos Leaves Dropping (Early) 37.097200000000000 -88.875500000000000 22946
Fri Nov 01 00:00:00 GMT 2013 Tjharnish91 Willow oak Quercus phellos 50% Color 39.173800000000000 -86.532500000000000 23293
Wed Nov 06 00:00:00 GMT 2013 Tjharnish91 Willow oak Quercus phellos 50% Leaf Fall 39.173800000000000 -86.532500000000000 23294
Wed Oct 30 00:00:00 GMT 2013 robinv1_Washington_College_reporter11 Willow oak Quercus phellos 50% Color 39.219200000000000 -76.069600000000000 24149
Tue Oct 29 00:00:00 GMT 2013 robinv1_Washington_College_reporter11 Willow oak Quercus phellos 50% Leaf Fall 39.219200000000000 -76.069600000000000 24150
Mon Oct 07 00:00:00 GMT 2013 robinv1_Washington_College_reporter21 Willow oak Quercus phellos 50% Color 39.219200000000000 -76.069600000000000 24181
Mon Oct 14 00:00:00 GMT 2013 robinv1_Washington_College_reporter21 Willow oak Quercus phellos 50% Leaf Fall 39.219200000000000 -76.069600000000000 24182
Mon Oct 14 00:00:00 GMT 2013 robinv1_Washington_College_reporter22 Willow oak Quercus phellos 50% Color 39.219200000000000 -76.069600000000000 24166
Sun Oct 20 00:00:00 GMT 2013 robinv1_Washington_College_reporter22 Willow oak Quercus phellos 50% Leaf Fall 39.219200000000000 -76.069600000000000 24167
Sun Oct 06 00:00:00 GMT 2013 robinv1_Washington_College_reporter9 Willow oak Quercus phellos 50% Color 39.219200000000000 -76.069600000000000 24227
Sun Oct 20 00:00:00 GMT 2013 robinv1_Washington_College_reporter9 Willow oak Quercus phellos 50% Leaf Fall 39.219200000000000 -76.069600000000000 24228
Mon Oct 28 00:00:00 GMT 2013 robinv1_Washington_College_reporter3 Willow oak Quercus phellos 50% Color 39.219200000000000 -76.069600000000000 24245
Mon Nov 11 00:00:00 GMT 2013 robinv1_Washington_College_reporter3 Willow oak Quercus phellos 50% Leaf Fall 39.219200000000000 -76.069600000000000 24246
Sat Oct 19 00:00:00 GMT 2013 robinv1_Washington_College_reporter23 Willow oak Quercus phellos 50% Color 39.219200000000000 -76.069600000000000 24255
Thu Oct 17 00:00:00 GMT 2013 robinv1_Washington_College_reporter23 Willow oak Quercus phellos 50% Leaf Fall 39.219200000000000 -76.069600000000000 24256
Sat Feb 13 00:00:00 GMT 2016 budburstyabubble Willow oak Quercus phellos Leaves Unfolding (Late) 32.776470000000000 -79.931050000000000 61928
Sat Feb 13 00:00:00 GMT 2016 budburstyabubble Willow oak Quercus phellos Leaves Changing Color (None) 32.776470000000000 -79.931050000000000 61929
Sat Feb 13 00:00:00 GMT 2016 budburstyabubble Willow oak Quercus phellos Leaves Dropping (None) 32.776470000000000 -79.931050000000000 61930
Sat Feb 13 00:00:00 GMT 2016 budburstyabubble Willow oak Quercus phellos Flowers (None) 32.776470000000000 -79.931050000000000 61931
Sat Feb 13 00:00:00 GMT 2016 budburstyabubble Willow oak Quercus phellos Fruit (None) 32.776470000000000 -79.931050000000000 61932
Mon Mar 14 00:00:00 GMT 2016 tcemleech Willow oak Quercus phellos Bud Burst 39.308690000000000 -76.865240000000000 62494
Tue Mar 22 00:00:00 GMT 2016 Kchaney Willow oak Quercus phellos Leaves Unfolding (None) 37.272280000000000 -85.891080000000000 63174
Tue Mar 22 00:00:00 GMT 2016 Kchaney Willow oak Quercus phellos Leaves Changing Color (None) 37.272280000000000 -85.891080000000000 63175
Tue Mar 22 00:00:00 GMT 2016 Kchaney Willow oak Quercus phellos Leaves Dropping (None) 37.272280000000000 -85.891080000000000 63176
Tue Mar 22 00:00:00 GMT 2016 Kchaney Willow oak Quercus phellos Flowers (None) 37.272280000000000 -85.891080000000000 63177
Tue Mar 22 00:00:00 GMT 2016 Kchaney Willow oak Quercus phellos Fruit (None) 37.272280000000000 -85.891080000000000 63178
Tue Mar 22 00:00:00 GMT 2016 Nathanchase7 Willow oak Quercus phellos Leaves Unfolding (None) 27.497270000000000 -82.601610000000000 63211
Tue Mar 22 00:00:00 GMT 2016 Nathanchase7 Willow oak Quercus phellos Leaves Changing Color (None) 27.497270000000000 -82.601610000000000 63212
Tue Mar 22 00:00:00 GMT 2016 Nathanchase7 Willow oak Quercus phellos Leaves Dropping (Early) 27.497270000000000 -82.601610000000000 63213
Tue Mar 22 00:00:00 GMT 2016 Nathanchase7 Willow oak Quercus phellos Flowers (None) 27.497270000000000 -82.601610000000000 63214
Tue Mar 22 00:00:00 GMT 2016 Nathanchase7 Willow oak Quercus phellos Fruit (None) 27.497270000000000 -82.601610000000000 63215
Wed Mar 23 00:00:00 GMT 2016 ravelisabeth Willow oak Quercus phellos Leaves Unfolding (Early) 37.272280000000000 -85.891080000000000 63299
Wed Mar 23 00:00:00 GMT 2016 ravelisabeth Willow oak Quercus phellos Leaves Changing Color (None) 37.272280000000000 -85.891080000000000 63300
Wed Mar 23 00:00:00 GMT 2016 ravelisabeth Willow oak Quercus phellos Leaves Dropping (None) 37.272280000000000 -85.891080000000000 63301
Wed Mar 23 00:00:00 GMT 2016 ravelisabeth Willow oak Quercus phellos Flowers (None) 37.272280000000000 -85.891080000000000 63302
Wed Mar 23 00:00:00 GMT 2016 ravelisabeth Willow oak Quercus phellos Fruit (None) 37.272280000000000 -85.891080000000000 63303
Wed Mar 23 00:00:00 GMT 2016 ZTForman Willow oak Quercus phellos Bud Burst 37.259644000000000 -85.881551000000000 63313
Wed Mar 23 00:00:00 GMT 2016 sevoris17 Willow oak Quercus phellos Leaves Unfolding (Early) 37.259367000000000 -85.879161000000000 63314
Wed Mar 23 00:00:00 GMT 2016 sevoris17 Willow oak Quercus phellos Leaves Changing Color (None) 37.259367000000000 -85.879161000000000 63315
Wed Mar 23 00:00:00 GMT 2016 sevoris17 Willow oak Quercus phellos Leaves Dropping (None) 37.259367000000000 -85.879161000000000 63316
Wed Mar 23 00:00:00 GMT 2016 sevoris17 Willow oak Quercus phellos Flowers (None) 37.259367000000000 -85.879161000000000 63317
Wed Mar 23 00:00:00 GMT 2016 sevoris17 Willow oak Quercus phellos Fruit (None) 37.259367000000000 -85.879161000000000 63318
Wed Mar 23 00:00:00 GMT 2016 acfarmer Willow oak Quercus phellos Leaves Unfolding (Early) 37.272280000000000 -85.891080000000000 63319
Wed Mar 23 00:00:00 GMT 2016 acfarmer Willow oak Quercus phellos Leaves Changing Color (None) 37.272280000000000 -85.891080000000000 63320
Wed Mar 23 00:00:00 GMT 2016 acfarmer Willow oak Quercus phellos Leaves Dropping (None) 37.272280000000000 -85.891080000000000 63321
Wed Mar 23 00:00:00 GMT 2016 acfarmer Willow oak Quercus phellos Flowers (None) 37.272280000000000 -85.891080000000000 63322
Wed Mar 23 00:00:00 GMT 2016 acfarmer Willow oak Quercus phellos Fruit (None) 37.272280000000000 -85.891080000000000 63323
Wed Mar 23 00:00:00 GMT 2016 DallasBailey Willow oak Quercus phellos Leaves Unfolding (Early) 37.259668000000000 -85.881538000000000 63324
Wed Mar 23 00:00:00 GMT 2016 DallasBailey Willow oak Quercus phellos Leaves Changing Color (None) 37.259668000000000 -85.881538000000000 63325
Wed Mar 23 00:00:00 GMT 2016 DallasBailey Willow oak Quercus phellos Leaves Dropping (None) 37.259668000000000 -85.881538000000000 63326
Wed Mar 23 00:00:00 GMT 2016 DallasBailey Willow oak Quercus phellos Flowers (None) 37.259668000000000 -85.881538000000000 63327
Wed Mar 23 00:00:00 GMT 2016 DallasBailey Willow oak Quercus phellos Fruit (None) 37.259668000000000 -85.881538000000000 63328
Wed Mar 23 00:00:00 GMT 2016 Kchaney Willow oak Quercus phellos Leaves Unfolding (Early) 37.272280000000000 -85.891080000000000 63334
Wed Mar 23 00:00:00 GMT 2016 Kchaney Willow oak Quercus phellos Leaves Changing Color (None) 37.272280000000000 -85.891080000000000 63335
Wed Mar 23 00:00:00 GMT 2016 Kchaney Willow oak Quercus phellos Leaves Dropping (None) 37.272280000000000 -85.891080000000000 63336
Wed Mar 23 00:00:00 GMT 2016 Kchaney Willow oak Quercus phellos Flowers (None) 37.272280000000000 -85.891080000000000 63337
Wed Mar 23 00:00:00 GMT 2016 Kchaney Willow oak Quercus phellos Fruit (None) 37.272280000000000 -85.891080000000000 63338
Wed Mar 23 00:00:00 GMT 2016 ravelisabeth Willow oak Quercus phellos Leaves Unfolding (Early) 37.272280000000000 -85.891080000000000 63339
Wed Mar 23 00:00:00 GMT 2016 ravelisabeth Willow oak Quercus phellos Leaves Changing Color (None) 37.272280000000000 -85.891080000000000 63340
Wed Mar 23 00:00:00 GMT 2016 ravelisabeth Willow oak Quercus phellos Leaves Dropping (None) 37.272280000000000 -85.891080000000000 63341
Wed Mar 23 00:00:00 GMT 2016 ravelisabeth Willow oak Quercus phellos Flowers (None) 37.272280000000000 -85.891080000000000 63342
Wed Mar 23 00:00:00 GMT 2016 ravelisabeth Willow oak Quercus phellos Fruit (None) 37.272280000000000 -85.891080000000000 63343
Wed Mar 23 00:00:00 GMT 2016 kelseyreneea Willow oak Quercus phellos Leaves Unfolding (None) 37.258120000000000 -85.884600000000000 63344
Wed Mar 23 00:00:00 GMT 2016 kelseyreneea Willow oak Quercus phellos Leaves Changing Color (None) 37.258120000000000 -85.884600000000000 63345
Wed Mar 23 00:00:00 GMT 2016 kelseyreneea Willow oak Quercus phellos Leaves Dropping (None) 37.258120000000000 -85.884600000000000 63346
Wed Mar 23 00:00:00 GMT 2016 kelseyreneea Willow oak Quercus phellos Flowers (None) 37.258120000000000 -85.884600000000000 63347
Wed Mar 23 00:00:00 GMT 2016 kelseyreneea Willow oak Quercus phellos Fruit (None) 37.258120000000000 -85.884600000000000 63348
Wed Mar 23 00:00:00 GMT 2016 JoshShoulders41 Willow oak Quercus phellos Leaves Unfolding (Early) 45.830390000000000 -109.953810000000000 63349
Wed Mar 23 00:00:00 GMT 2016 JoshShoulders41 Willow oak Quercus phellos Leaves Changing Color (None) 45.830390000000000 -109.953810000000000 63350
Wed Mar 23 00:00:00 GMT 2016 JoshShoulders41 Willow oak Quercus phellos Leaves Dropping (None) 45.830390000000000 -109.953810000000000 63351
Wed Mar 23 00:00:00 GMT 2016 JoshShoulders41 Willow oak Quercus phellos Flowers (None) 45.830390000000000 -109.953810000000000 63352
Wed Mar 23 00:00:00 GMT 2016 JoshShoulders41 Willow oak Quercus phellos Fruit (None) 45.830390000000000 -109.953810000000000 63353
Wed Mar 23 00:00:00 GMT 2016 meganaskins Willow oak Quercus phellos Leaves Unfolding (Early) 37.259623000000000 -85.881487000000000 63393
Wed Mar 23 00:00:00 GMT 2016 meganaskins Willow oak Quercus phellos Leaves Changing Color (None) 37.259623000000000 -85.881487000000000 63394
Wed Mar 23 00:00:00 GMT 2016 meganaskins Willow oak Quercus phellos Leaves Dropping (None) 37.259623000000000 -85.881487000000000 63395
Wed Mar 23 00:00:00 GMT 2016 meganaskins Willow oak Quercus phellos Flowers (None) 37.259623000000000 -85.881487000000000 63396
Wed Mar 23 00:00:00 GMT 2016 meganaskins Willow oak Quercus phellos Fruit (None) 37.259623000000000 -85.881487000000000 63397
Fri Mar 25 00:00:00 GMT 2016 beth7197 Willow oak Quercus phellos Leaves Unfolding (None) 40.000000000000000 -100.000000000000000 63491
Fri Mar 25 00:00:00 GMT 2016 beth7197 Willow oak Quercus phellos Leaves Changing Color (None) 40.000000000000000 -100.000000000000000 63492
Fri Mar 25 00:00:00 GMT 2016 beth7197 Willow oak Quercus phellos Leaves Dropping (None) 40.000000000000000 -100.000000000000000 63493
Fri Mar 25 00:00:00 GMT 2016 beth7197 Willow oak Quercus phellos Flowers (None) 40.000000000000000 -100.000000000000000 63494
Fri Mar 25 00:00:00 GMT 2016 beth7197 Willow oak Quercus phellos Fruit (None) 40.000000000000000 -100.000000000000000 63495
Thu Mar 24 00:00:00 GMT 2016 ncarter2016 Willow oak Quercus phellos Leaves Unfolding (None) 37.259620000000000 -85.881670000000000 63496
Thu Mar 24 00:00:00 GMT 2016 ncarter2016 Willow oak Quercus phellos Leaves Changing Color (None) 37.259620000000000 -85.881670000000000 63497
Thu Mar 24 00:00:00 GMT 2016 ncarter2016 Willow oak Quercus phellos Leaves Dropping (None) 37.259620000000000 -85.881670000000000 63498
Thu Mar 24 00:00:00 GMT 2016 ncarter2016 Willow oak Quercus phellos Flowers (None) 37.259620000000000 -85.881670000000000 63499
Thu Mar 24 00:00:00 GMT 2016 ncarter2016 Willow oak Quercus phellos Fruit (None) 37.259620000000000 -85.881670000000000 63500
Fri Mar 25 00:00:00 GMT 2016 AutumnRhea98 Willow oak Quercus phellos Leaves Unfolding (None) 37.259620000000000 -85.881670000000000 63501
Fri Mar 25 00:00:00 GMT 2016 AutumnRhea98 Willow oak Quercus phellos Leaves Changing Color (None) 37.259620000000000 -85.881670000000000 63502
Fri Mar 25 00:00:00 GMT 2016 AutumnRhea98 Willow oak Quercus phellos Leaves Dropping (None) 37.259620000000000 -85.881670000000000 63503
Fri Mar 25 00:00:00 GMT 2016 AutumnRhea98 Willow oak Quercus phellos Flowers (None) 37.259620000000000 -85.881670000000000 63504
Fri Mar 25 00:00:00 GMT 2016 AutumnRhea98 Willow oak Quercus phellos Fruit (None) 37.259620000000000 -85.881670000000000 63505
Mon Mar 28 00:00:00 GMT 2016 kelseyreneea Willow oak Quercus phellos Leaves Unfolding (Middle) 40.000000000000000 -100.000000000000000 63572
Mon Mar 28 00:00:00 GMT 2016 kelseyreneea Willow oak Quercus phellos Leaves Changing Color (Middle) 40.000000000000000 -100.000000000000000 63573
Mon Mar 28 00:00:00 GMT 2016 kelseyreneea Willow oak Quercus phellos Leaves Dropping (None) 40.000000000000000 -100.000000000000000 63574
Mon Mar 28 00:00:00 GMT 2016 kelseyreneea Willow oak Quercus phellos Flowers (Early) 40.000000000000000 -100.000000000000000 63575
Mon Mar 28 00:00:00 GMT 2016 kelseyreneea Willow oak Quercus phellos Fruit (None) 40.000000000000000 -100.000000000000000 63576
Mon Mar 28 00:00:00 GMT 2016 DallasBailey Willow oak Quercus phellos Leaves Unfolding (Middle) 37.259670000000000 -85.881543000000000 63577
Mon Mar 28 00:00:00 GMT 2016 DallasBailey Willow oak Quercus phellos Leaves Changing Color (None) 37.259670000000000 -85.881543000000000 63578
Mon Mar 28 00:00:00 GMT 2016 DallasBailey Willow oak Quercus phellos Leaves Dropping (None) 37.259670000000000 -85.881543000000000 63579
Mon Mar 28 00:00:00 GMT 2016 DallasBailey Willow oak Quercus phellos Flowers (None) 37.259670000000000 -85.881543000000000 63580
Mon Mar 28 00:00:00 GMT 2016 DallasBailey Willow oak Quercus phellos Fruit (None) 37.259670000000000 -85.881543000000000 63581
Mon Mar 28 00:00:00 GMT 2016 meganaskins Willow oak Quercus phellos Leaves Unfolding (Middle) 37.259487000000000 -85.882605000000000 63582
Mon Mar 28 00:00:00 GMT 2016 meganaskins Willow oak Quercus phellos Leaves Changing Color (None) 37.259487000000000 -85.882605000000000 63583
Mon Mar 28 00:00:00 GMT 2016 meganaskins Willow oak Quercus phellos Leaves Dropping (None) 37.259487000000000 -85.882605000000000 63584
Mon Mar 28 00:00:00 GMT 2016 meganaskins Willow oak Quercus phellos Flowers (None) 37.259487000000000 -85.882605000000000 63585
Mon Mar 28 00:00:00 GMT 2016 meganaskins Willow oak Quercus phellos Fruit (None) 37.259487000000000 -85.882605000000000 63586
Tue Mar 29 00:00:00 GMT 2016 lbskaggs Willow oak Quercus phellos Leaves Unfolding (Early) 37.272280000000000 -85.891080000000000 63598
Tue Mar 29 00:00:00 GMT 2016 lbskaggs Willow oak Quercus phellos Leaves Changing Color (None) 37.272280000000000 -85.891080000000000 63599
Tue Mar 29 00:00:00 GMT 2016 lbskaggs Willow oak Quercus phellos Leaves Dropping (None) 37.272280000000000 -85.891080000000000 63600
Tue Mar 29 00:00:00 GMT 2016 lbskaggs Willow oak Quercus phellos Flowers (None) 37.272280000000000 -85.891080000000000 63601
Tue Mar 29 00:00:00 GMT 2016 lbskaggs Willow oak Quercus phellos Fruit (None) 37.272280000000000 -85.891080000000000 63602
Thu Apr 14 00:00:00 GMT 2016 pgarcia5 Willow oak Quercus phellos Leaves Unfolding (Early) 38.835270000000000 -77.309480000000000 64615
Thu Apr 14 00:00:00 GMT 2016 pgarcia5 Willow oak Quercus phellos Leaves Changing Color (Early) 38.835270000000000 -77.309480000000000 64616
Thu Apr 14 00:00:00 GMT 2016 pgarcia5 Willow oak Quercus phellos Leaves Dropping (Middle) 38.835270000000000 -77.309480000000000 64617
Thu Apr 14 00:00:00 GMT 2016 pgarcia5 Willow oak Quercus phellos Flowers (None) 38.835270000000000 -77.309480000000000 64618
Thu Apr 14 00:00:00 GMT 2016 pgarcia5 Willow oak Quercus phellos Fruit (None) 38.835270000000000 -77.309480000000000 64619
Thu Apr 21 00:00:00 GMT 2016 vigilty11 Willow oak Quercus phellos Leaves Unfolding (None) 40.103089000000000 -105.143816000000000 64941
Thu Apr 21 00:00:00 GMT 2016 vigilty11 Willow oak Quercus phellos Leaves Changing Color (None) 40.103089000000000 -105.143816000000000 64942
Thu Apr 21 00:00:00 GMT 2016 vigilty11 Willow oak Quercus phellos Leaves Dropping (None) 40.103089000000000 -105.143816000000000 64943
Thu Apr 21 00:00:00 GMT 2016 vigilty11 Willow oak Quercus phellos Flowers (None) 40.103089000000000 -105.143816000000000 64944
Thu Apr 21 00:00:00 GMT 2016 vigilty11 Willow oak Quercus phellos Fruit (None) 40.103089000000000 -105.143816000000000 64945
Wed May 11 00:00:00 GMT 2016 esthela725 Willow oak Quercus phellos Leaves Unfolding (Middle) 40.103590000000000 -105.143250000000000 66928
Wed May 11 00:00:00 GMT 2016 esthela725 Willow oak Quercus phellos Leaves Changing Color (Middle) 40.103590000000000 -105.143250000000000 66929
Wed May 11 00:00:00 GMT 2016 esthela725 Willow oak Quercus phellos Leaves Dropping (Early) 40.103590000000000 -105.143250000000000 66930
Wed May 11 00:00:00 GMT 2016 esthela725 Willow oak Quercus phellos Flowers (None) 40.103590000000000 -105.143250000000000 66931
Wed May 11 00:00:00 GMT 2016 esthela725 Willow oak Quercus phellos Fruit (None) 40.103590000000000 -105.143250000000000 66932
Wed May 04 00:00:00 GMT 2016 JGrant Willow oak Quercus phellos All Leaves Unfolded 34.000710000000000 -81.034810000000000 67622
Wed May 11 00:00:00 GMT 2016 JGrant Willow oak Quercus phellos First Flower 34.000710000000000 -81.034810000000000 67623
Sat Jun 25 00:00:00 GMT 2016 georgette Willow oak Quercus phellos Leaves Unfolding (Early) 32.708210000000000 -96.816150000000000 68602
Sat Jun 25 00:00:00 GMT 2016 georgette Willow oak Quercus phellos Leaves Changing Color (None) 32.708210000000000 -96.816150000000000 68603
Sat Jun 25 00:00:00 GMT 2016 georgette Willow oak Quercus phellos Leaves Dropping (None) 32.708210000000000 -96.816150000000000 68604
Sat Jun 25 00:00:00 GMT 2016 georgette Willow oak Quercus phellos Flowers (None) 32.708210000000000 -96.816150000000000 68605
Sat Jun 25 00:00:00 GMT 2016 georgette Willow oak Quercus phellos Fruit (None) 32.708210000000000 -96.816150000000000 68606
Sat Jun 25 00:00:00 GMT 2016 georgette Willow oak Quercus phellos Leaves Unfolding (Early) 32.708210000000000 -96.816150000000000 68607
Sat Jun 25 00:00:00 GMT 2016 georgette Willow oak Quercus phellos Leaves Changing Color (None) 32.708210000000000 -96.816150000000000 68608
Sat Jun 25 00:00:00 GMT 2016 georgette Willow oak Quercus phellos Leaves Dropping (None) 32.708210000000000 -96.816150000000000 68609
Sat Jun 25 00:00:00 GMT 2016 georgette Willow oak Quercus phellos Flowers (None) 32.708210000000000 -96.816150000000000 68610
Sat Jun 25 00:00:00 GMT 2016 georgette Willow oak Quercus phellos Fruit (None) 32.708210000000000 -96.816150000000000 68611
Tue Sep 13 00:00:00 GMT 2016 cpitz Willow oak Quercus phellos Leaves Unfolding (Late) 37.674777000000000 -77.167969000000000 69837
Tue Sep 13 00:00:00 GMT 2016 cpitz Willow oak Quercus phellos Leaves Changing Color (Middle) 37.674777000000000 -77.167969000000000 69838
Tue Sep 13 00:00:00 GMT 2016 cpitz Willow oak Quercus phellos Leaves Dropping (Middle) 37.674777000000000 -77.167969000000000 69839
Tue Sep 13 00:00:00 GMT 2016 cpitz Willow oak Quercus phellos Flowers (Early) 37.674777000000000 -77.167969000000000 69840
Tue Sep 13 00:00:00 GMT 2016 cpitz Willow oak Quercus phellos Fruit (None) 37.674777000000000 -77.167969000000000 69841
Tue Nov 01 00:00:00 GMT 2016 MrHorambe Willow oak Quercus phellos Leaves Unfolding (None) 37.237000000000000 -79.440000000000000 72128
Tue Nov 01 00:00:00 GMT 2016 MrHorambe Willow oak Quercus phellos Leaves Changing Color (Middle) 37.237000000000000 -79.440000000000000 72129
Tue Nov 01 00:00:00 GMT 2016 MrHorambe Willow oak Quercus phellos Leaves Dropping (Middle) 37.237000000000000 -79.440000000000000 72130
Tue Nov 01 00:00:00 GMT 2016 MrHorambe Willow oak Quercus phellos Flowers (None) 37.237000000000000 -79.440000000000000 72131
Tue Nov 01 00:00:00 GMT 2016 MrHorambe Willow oak Quercus phellos Fruit (None) 37.237000000000000 -79.440000000000000 72132
Sun Nov 13 00:00:00 GMT 2016 rthobbs Willow oak Quercus phellos 50% Color 39.160395000000000 -86.532723000000000 73384
Fri Nov 04 00:00:00 GMT 2016 rthobbs Willow oak Quercus phellos 50% Leaf Fall 39.160395000000000 -86.532723000000000 73385
Sat Feb 11 00:00:00 GMT 2017 IshRaq15 Willow oak Quercus phellos Leaves Unfolding (None) 39.782810000000000 -75.500570000000000 74854
Sat Feb 11 00:00:00 GMT 2017 IshRaq15 Willow oak Quercus phellos Leaves Changing Color (None) 39.782810000000000 -75.500570000000000 74855
Sat Feb 11 00:00:00 GMT 2017 IshRaq15 Willow oak Quercus phellos Leaves Dropping (None) 39.782810000000000 -75.500570000000000 74856
Sat Feb 11 00:00:00 GMT 2017 IshRaq15 Willow oak Quercus phellos Flowers (None) 39.782810000000000 -75.500570000000000 74857
Sat Feb 11 00:00:00 GMT 2017 IshRaq15 Willow oak Quercus phellos Fruit (None) 39.782810000000000 -75.500570000000000 74858
Tue Feb 28 00:00:00 GMT 2017 jeanmells Willow oak Quercus phellos Bud Burst 35.797400000000000 -78.634050000000000 75400
Mon Mar 20 00:00:00 GMT 2017 ojohnstone Willow oak Quercus phellos Leaves Unfolding (None) 37.292310000000000 -85.950890000000000 75814
Mon Mar 20 00:00:00 GMT 2017 ojohnstone Willow oak Quercus phellos Leaves Changing Color (None) 37.292310000000000 -85.950890000000000 75815
Mon Mar 20 00:00:00 GMT 2017 ojohnstone Willow oak Quercus phellos Leaves Dropping (None) 37.292310000000000 -85.950890000000000 75816
Mon Mar 20 00:00:00 GMT 2017 ojohnstone Willow oak Quercus phellos Flowers (None) 37.292310000000000 -85.950890000000000 75817
Mon Mar 20 00:00:00 GMT 2017 ojohnstone Willow oak Quercus phellos Fruit (None) 37.292310000000000 -85.950890000000000 75818
Mon Mar 20 00:00:00 GMT 2017 jacoblobb Willow oak Quercus phellos Leaves Unfolding (None) 37.263158000000000 -85.879526000000000 75824
Mon Mar 20 00:00:00 GMT 2017 jacoblobb Willow oak Quercus phellos Leaves Changing Color (None) 37.263158000000000 -85.879526000000000 75825
Mon Mar 20 00:00:00 GMT 2017 jacoblobb Willow oak Quercus phellos Leaves Dropping (None) 37.263158000000000 -85.879526000000000 75826
Mon Mar 20 00:00:00 GMT 2017 jacoblobb Willow oak Quercus phellos Flowers (None) 37.263158000000000 -85.879526000000000 75827
Mon Mar 20 00:00:00 GMT 2017 jacoblobb Willow oak Quercus phellos Fruit (None) 37.263158000000000 -85.879526000000000 75828
Mon Mar 20 00:00:00 GMT 2017 aaedwards Willow oak Quercus phellos Leaves Unfolding (None) 37.259620000000000 -85.881670000000000 75839
Mon Mar 20 00:00:00 GMT 2017 aaedwards Willow oak Quercus phellos Leaves Changing Color (None) 37.259620000000000 -85.881670000000000 75840
Mon Mar 20 00:00:00 GMT 2017 aaedwards Willow oak Quercus phellos Leaves Dropping (None) 37.259620000000000 -85.881670000000000 75841
Mon Mar 20 00:00:00 GMT 2017 aaedwards Willow oak Quercus phellos Flowers (None) 37.259620000000000 -85.881670000000000 75842
Mon Mar 20 00:00:00 GMT 2017 aaedwards Willow oak Quercus phellos Fruit (None) 37.259620000000000 -85.881670000000000 75843
Mon Mar 20 00:00:00 GMT 2017 lilyjean73 Willow oak Quercus phellos Leaves Unfolding (None) 37.292310000000000 -85.950890000000000 75844
Mon Mar 20 00:00:00 GMT 2017 lilyjean73 Willow oak Quercus phellos Leaves Changing Color (None) 37.292310000000000 -85.950890000000000 75845
Mon Mar 20 00:00:00 GMT 2017 lilyjean73 Willow oak Quercus phellos Leaves Dropping (None) 37.292310000000000 -85.950890000000000 75846
Mon Mar 20 00:00:00 GMT 2017 lilyjean73 Willow oak Quercus phellos Flowers (None) 37.292310000000000 -85.950890000000000 75847
Mon Mar 20 00:00:00 GMT 2017 lilyjean73 Willow oak Quercus phellos Fruit (None) 37.292310000000000 -85.950890000000000 75848
Mon Mar 20 00:00:00 GMT 2017 jinseystinson Willow oak Quercus phellos Leaves Unfolding (Early) 37.272280000000000 -85.891080000000000 75849
Mon Mar 20 00:00:00 GMT 2017 jinseystinson Willow oak Quercus phellos Leaves Changing Color (None) 37.272280000000000 -85.891080000000000 75850
Mon Mar 20 00:00:00 GMT 2017 jinseystinson Willow oak Quercus phellos Leaves Dropping (None) 37.272280000000000 -85.891080000000000 75851
Mon Mar 20 00:00:00 GMT 2017 jinseystinson Willow oak Quercus phellos Flowers (None) 37.272280000000000 -85.891080000000000 75852
Mon Mar 20 00:00:00 GMT 2017 jinseystinson Willow oak Quercus phellos Fruit (None) 37.272280000000000 -85.891080000000000 75853
Mon Mar 20 00:00:00 GMT 2017 kayliebutler Willow oak Quercus phellos Leaves Unfolding (Early) 37.292310000000000 -85.950890000000000 75929
Mon Mar 20 00:00:00 GMT 2017 kayliebutler Willow oak Quercus phellos Leaves Changing Color (None) 37.292310000000000 -85.950890000000000 75930
Mon Mar 20 00:00:00 GMT 2017 kayliebutler Willow oak Quercus phellos Leaves Dropping (None) 37.292310000000000 -85.950890000000000 75931
Mon Mar 20 00:00:00 GMT 2017 kayliebutler Willow oak Quercus phellos Flowers (None) 37.292310000000000 -85.950890000000000 75932
Mon Mar 20 00:00:00 GMT 2017 kayliebutler Willow oak Quercus phellos Fruit (None) 37.292310000000000 -85.950890000000000 75933
Mon Mar 20 00:00:00 GMT 2017 Mshrader Willow oak Quercus phellos Leaves Unfolding (None) 37.258923000000000 -85.882144000000000 75939
Mon Mar 20 00:00:00 GMT 2017 Mshrader Willow oak Quercus phellos Leaves Changing Color (None) 37.258923000000000 -85.882144000000000 75940
Mon Mar 20 00:00:00 GMT 2017 Mshrader Willow oak Quercus phellos Leaves Dropping (None) 37.258923000000000 -85.882144000000000 75941
Mon Mar 20 00:00:00 GMT 2017 Mshrader Willow oak Quercus phellos Flowers (None) 37.258923000000000 -85.882144000000000 75942
Mon Mar 20 00:00:00 GMT 2017 Mshrader Willow oak Quercus phellos Fruit (None) 37.258923000000000 -85.882144000000000 75943
Fri Mar 24 00:00:00 GMT 2017 kayliebutler Willow oak Quercus phellos Leaves Unfolding (None) 37.292310000000000 -85.950890000000000 76271
Fri Mar 24 00:00:00 GMT 2017 kayliebutler Willow oak Quercus phellos Leaves Changing Color (None) 37.292310000000000 -85.950890000000000 76272
Fri Mar 24 00:00:00 GMT 2017 kayliebutler Willow oak Quercus phellos Leaves Dropping (None) 37.292310000000000 -85.950890000000000 76273
Fri Mar 24 00:00:00 GMT 2017 kayliebutler Willow oak Quercus phellos Flowers (None) 37.292310000000000 -85.950890000000000 76274
Fri Mar 24 00:00:00 GMT 2017 kayliebutler Willow oak Quercus phellos Fruit (None) 37.292310000000000 -85.950890000000000 76275
Fri Mar 24 00:00:00 GMT 2017 lilyjean73 Willow oak Quercus phellos Leaves Unfolding (None) 40.000000000000000 -100.000000000000000 76276
Fri Mar 24 00:00:00 GMT 2017 lilyjean73 Willow oak Quercus phellos Leaves Changing Color (None) 40.000000000000000 -100.000000000000000 76277
Fri Mar 24 00:00:00 GMT 2017 lilyjean73 Willow oak Quercus phellos Leaves Dropping (None) 40.000000000000000 -100.000000000000000 76278
Fri Mar 24 00:00:00 GMT 2017 lilyjean73 Willow oak Quercus phellos Flowers (None) 40.000000000000000 -100.000000000000000 76279
Fri Mar 24 00:00:00 GMT 2017 lilyjean73 Willow oak Quercus phellos Fruit (None) 40.000000000000000 -100.000000000000000 76280
Fri Mar 24 00:00:00 GMT 2017 mollyjean083 Willow oak Quercus phellos Leaves Unfolding (None) 37.259680000000000 -85.881480000000000 76296
Fri Mar 24 00:00:00 GMT 2017 mollyjean083 Willow oak Quercus phellos Leaves Changing Color (None) 37.259680000000000 -85.881480000000000 76297
Fri Mar 24 00:00:00 GMT 2017 mollyjean083 Willow oak Quercus phellos Leaves Dropping (None) 37.259680000000000 -85.881480000000000 76298
Fri Mar 24 00:00:00 GMT 2017 mollyjean083 Willow oak Quercus phellos Flowers (None) 37.259680000000000 -85.881480000000000 76299
Fri Mar 24 00:00:00 GMT 2017 mollyjean083 Willow oak Quercus phellos Fruit (None) 37.259680000000000 -85.881480000000000 76300
Fri Mar 24 00:00:00 GMT 2017 jinseystinson Willow oak Quercus phellos Leaves Unfolding (Early) 37.292310000000000 -85.950890000000000 76311
Fri Mar 24 00:00:00 GMT 2017 jinseystinson Willow oak Quercus phellos Leaves Changing Color (None) 37.292310000000000 -85.950890000000000 76312
Fri Mar 24 00:00:00 GMT 2017 jinseystinson Willow oak Quercus phellos Leaves Dropping (None) 37.292310000000000 -85.950890000000000 76313
Fri Mar 24 00:00:00 GMT 2017 jinseystinson Willow oak Quercus phellos Flowers (None) 37.292310000000000 -85.950890000000000 76314
Fri Mar 24 00:00:00 GMT 2017 jinseystinson Willow oak Quercus phellos Fruit (None) 37.292310000000000 -85.950890000000000 76315
Fri Mar 24 00:00:00 GMT 2017 TheMcButter Willow oak Quercus phellos Leaves Unfolding (Early) 37.259709000000000 -85.881500000000000 76328
Fri Mar 24 00:00:00 GMT 2017 TheMcButter Willow oak Quercus phellos Leaves Changing Color (None) 37.259709000000000 -85.881500000000000 76329
Fri Mar 24 00:00:00 GMT 2017 TheMcButter Willow oak Quercus phellos Leaves Dropping (None) 37.259709000000000 -85.881500000000000 76330
Fri Mar 24 00:00:00 GMT 2017 TheMcButter Willow oak Quercus phellos Flowers (None) 37.259709000000000 -85.881500000000000 76331
Fri Mar 24 00:00:00 GMT 2017 TheMcButter Willow oak Quercus phellos Fruit (None) 37.259709000000000 -85.881500000000000 76332
Fri Mar 24 00:00:00 GMT 2017 aaedwards Willow oak Quercus phellos Leaves Unfolding (None) 37.260323000000000 -85.862789000000000 76340
Fri Mar 24 00:00:00 GMT 2017 aaedwards Willow oak Quercus phellos Leaves Changing Color (None) 37.260323000000000 -85.862789000000000 76341
Fri Mar 24 00:00:00 GMT 2017 aaedwards Willow oak Quercus phellos Leaves Dropping (None) 37.260323000000000 -85.862789000000000 76342
Fri Mar 24 00:00:00 GMT 2017 aaedwards Willow oak Quercus phellos Flowers (None) 37.260323000000000 -85.862789000000000 76343
Fri Mar 24 00:00:00 GMT 2017 aaedwards Willow oak Quercus phellos Fruit (None) 37.260323000000000 -85.862789000000000 76344
Fri Mar 24 00:00:00 GMT 2017 Mshrader Willow oak Quercus phellos Leaves Unfolding (None) 37.259282000000000 -85.882359000000000 76356
Fri Mar 24 00:00:00 GMT 2017 Mshrader Willow oak Quercus phellos Leaves Changing Color (None) 37.259282000000000 -85.882359000000000 76357
Fri Mar 24 00:00:00 GMT 2017 Mshrader Willow oak Quercus phellos Leaves Dropping (None) 37.259282000000000 -85.882359000000000 76358
Fri Mar 24 00:00:00 GMT 2017 Mshrader Willow oak Quercus phellos Flowers (None) 37.259282000000000 -85.882359000000000 76359
Fri Mar 24 00:00:00 GMT 2017 Mshrader Willow oak Quercus phellos Fruit (None) 37.259282000000000 -85.882359000000000 76360
Wed Mar 29 00:00:00 GMT 2017 Annalesaneal Willow oak Quercus phellos Leaves Unfolding (None) 37.259691000000000 -85.881490000000000 77476
Wed Mar 29 00:00:00 GMT 2017 Annalesaneal Willow oak Quercus phellos Leaves Changing Color (None) 37.259691000000000 -85.881490000000000 77477
Wed Mar 29 00:00:00 GMT 2017 Annalesaneal Willow oak Quercus phellos Leaves Dropping (None) 37.259691000000000 -85.881490000000000 77478
Wed Mar 29 00:00:00 GMT 2017 Annalesaneal Willow oak Quercus phellos Flowers (None) 37.259691000000000 -85.881490000000000 77479
Wed Mar 29 00:00:00 GMT 2017 Annalesaneal Willow oak Quercus phellos Fruit (None) 37.259691000000000 -85.881490000000000 77480
Wed Mar 08 00:00:00 GMT 2017 BSimmons0049 Willow oak Quercus phellos Leaves Unfolding (None) 37.272280000000000 -85.891080000000000 77481
Wed Mar 08 00:00:00 GMT 2017 BSimmons0049 Willow oak Quercus phellos Leaves Changing Color (None) 37.272280000000000 -85.891080000000000 77482
Wed Mar 08 00:00:00 GMT 2017 BSimmons0049 Willow oak Quercus phellos Leaves Dropping (None) 37.272280000000000 -85.891080000000000 77483
Wed Mar 08 00:00:00 GMT 2017 BSimmons0049 Willow oak Quercus phellos Flowers (None) 37.272280000000000 -85.891080000000000 77484
Wed Mar 08 00:00:00 GMT 2017 BSimmons0049 Willow oak Quercus phellos Fruit (None) 37.272280000000000 -85.891080000000000 77485
Tue Apr 11 00:00:00 GMT 2017 Annalesaneal Willow oak Quercus phellos Leaves Unfolding (None) 37.259691000000000 -85.881490000000000 77486
Tue Apr 11 00:00:00 GMT 2017 Annalesaneal Willow oak Quercus phellos Leaves Changing Color (None) 37.259691000000000 -85.881490000000000 77487
Tue Apr 11 00:00:00 GMT 2017 Annalesaneal Willow oak Quercus phellos Leaves Dropping (None) 37.259691000000000 -85.881490000000000 77488
Tue Apr 11 00:00:00 GMT 2017 Annalesaneal Willow oak Quercus phellos Flowers (None) 37.259691000000000 -85.881490000000000 77489
Tue Apr 11 00:00:00 GMT 2017 Annalesaneal Willow oak Quercus phellos Fruit (None) 37.259691000000000 -85.881490000000000 77490
Thu Feb 16 00:00:00 GMT 2017 BSimmons0049 Willow oak Quercus phellos Leaves Unfolding (None) 37.272280000000000 -85.891080000000000 77491
Thu Feb 16 00:00:00 GMT 2017 BSimmons0049 Willow oak Quercus phellos Leaves Changing Color (None) 37.272280000000000 -85.891080000000000 77492
Thu Feb 16 00:00:00 GMT 2017 BSimmons0049 Willow oak Quercus phellos Leaves Dropping (None) 37.272280000000000 -85.891080000000000 77493
Thu Feb 16 00:00:00 GMT 2017 BSimmons0049 Willow oak Quercus phellos Flowers (None) 37.272280000000000 -85.891080000000000 77494
Thu Feb 16 00:00:00 GMT 2017 BSimmons0049 Willow oak Quercus phellos Fruit (None) 37.272280000000000 -85.891080000000000 77495
Tue Apr 18 00:00:00 GMT 2017 ajraybold Willow oak Quercus phellos Leaves Unfolding (None) 40.124080000000000 -75.119510000000000 78562
Tue Apr 18 00:00:00 GMT 2017 ajraybold Willow oak Quercus phellos Leaves Changing Color (None) 40.124080000000000 -75.119510000000000 78563
Tue Apr 18 00:00:00 GMT 2017 ajraybold Willow oak Quercus phellos Leaves Dropping (None) 40.124080000000000 -75.119510000000000 78564
Tue Apr 18 00:00:00 GMT 2017 ajraybold Willow oak Quercus phellos Flowers (None) 40.124080000000000 -75.119510000000000 78565
Tue Apr 18 00:00:00 GMT 2017 ajraybold Willow oak Quercus phellos Fruit (None) 40.124080000000000 -75.119510000000000 78566
Wed Apr 12 00:00:00 GMT 2017 paodanielsen Willow oak Quercus phellos Leaves Unfolding (Middle) 34.742917000000000 -79.486449000000000 78855
Wed Apr 12 00:00:00 GMT 2017 paodanielsen Willow oak Quercus phellos Leaves Changing Color (None) 34.742917000000000 -79.486449000000000 78856
Wed Apr 12 00:00:00 GMT 2017 paodanielsen Willow oak Quercus phellos Leaves Dropping (None) 34.742917000000000 -79.486449000000000 78857
Wed Apr 12 00:00:00 GMT 2017 paodanielsen Willow oak Quercus phellos Flowers (None) 34.742917000000000 -79.486449000000000 78858
Wed Apr 12 00:00:00 GMT 2017 paodanielsen Willow oak Quercus phellos Fruit (None) 34.742917000000000 -79.486449000000000 78859
Fri Apr 21 00:00:00 GMT 2017 RyanBogas Willow oak Quercus phellos Leaves Unfolding (Early) 40.253042000000000 -75.234852000000000 79095
Fri Apr 21 00:00:00 GMT 2017 RyanBogas Willow oak Quercus phellos Leaves Changing Color (None) 40.253042000000000 -75.234852000000000 79096
Fri Apr 21 00:00:00 GMT 2017 RyanBogas Willow oak Quercus phellos Leaves Dropping (None) 40.253042000000000 -75.234852000000000 79097
Fri Apr 21 00:00:00 GMT 2017 RyanBogas Willow oak Quercus phellos Flowers (None) 40.253042000000000 -75.234852000000000 79098
Fri Apr 21 00:00:00 GMT 2017 RyanBogas Willow oak Quercus phellos Fruit (None) 40.253042000000000 -75.234852000000000 79099
Sat Apr 22 00:00:00 GMT 2017 Katiec Willow oak Quercus phellos Leaves Unfolding (Early) 40.288000000000000 -75.158250000000000 79273
Sat Apr 22 00:00:00 GMT 2017 Katiec Willow oak Quercus phellos Leaves Changing Color (None) 40.288000000000000 -75.158250000000000 79274
Sat Apr 22 00:00:00 GMT 2017 Katiec Willow oak Quercus phellos Leaves Dropping (None) 40.288000000000000 -75.158250000000000 79275
Sat Apr 22 00:00:00 GMT 2017 Katiec Willow oak Quercus phellos Flowers (None) 40.288000000000000 -75.158250000000000 79276
Sat Apr 22 00:00:00 GMT 2017 Katiec Willow oak Quercus phellos Fruit (None) 40.288000000000000 -75.158250000000000 79277

*All downloadable materials require the free Adobe Reader.